Time;durP1;ratioP1;P1;durP2;ratioP2;P2;SDS_P1;SDS_P2;PMS_P1;PMS_P2;Temp;Humidity;BMP_temperature;BMP_pressure;BME280_temperature;BME280_humidity;BME280_pressure;Samples;Min_cycle;Max_cycle;Signal;HPM_P1;HPM_P2
2021/06/19 00:00:25;;;;;;;7.13;6.43;;;;;;;26.26;48.85;95434.94;4998531;28;20574;-86
2021/06/19 00:02:51;;;;;;;7.40;6.72;;;;;;;26.11;49.73;95436.66;4995041;28;20206;-85
2021/06/19 00:05:20;;;;;;;7.50;6.75;;;;;;;26.11;49.45;95428.75;4989415;28;20593;-84
2021/06/19 00:07:46;;;;;;;7.47;6.78;;;;;;;26.03;49.96;95439.09;4998284;28;20211;-86
2021/06/19 00:10:23;;;;;;;8.23;6.85;;;;;;;25.96;50.17;95439.44;4998311;28;20211;-86
2021/06/19 00:12:53;;;;;;;7.20;6.70;;;;;;;25.92;50.48;95438.41;4998323;28;20218;-85
2021/06/19 00:15:23;;;;;;;7.80;7.18;;;;;;;26.01;50.14;95433.31;4998477;28;20214;-84
2021/06/19 00:17:50;;;;;;;7.85;7.25;;;;;;;26.03;50.13;95442.53;4998287;28;20231;-86
2021/06/19 00:20:19;;;;;;;7.60;6.85;;;;;;;26.01;50.32;95449.94;4998618;28;20200;-85
2021/06/19 00:22:47;;;;;;;6.85;6.22;;;;;;;26.05;49.61;95450.16;4997838;28;20204;-84
2021/06/19 00:25:15;;;;;;;7.20;6.47;;;;;;;25.99;50.16;95446.78;4997585;28;20234;-85
2021/06/19 00:27:42;;;;;;;7.30;6.60;;;;;;;25.98;49.98;95449.72;4997913;28;20698;-85
2021/06/19 00:30:11;;;;;;;6.50;6.00;;;;;;;25.97;50.02;95456.84;4997225;28;20207;-84
2021/06/19 00:32:38;;;;;;;6.70;6.20;;;;;;;25.96;50.22;95473.72;4996568;28;20227;-84
2021/06/19 00:35:06;;;;;;;6.95;6.35;;;;;;;25.85;50.49;95463.53;4998088;28;20206;-86
2021/06/19 00:37:34;;;;;;;7.30;6.63;;;;;;;25.84;50.66;95460.09;4998156;28;20223;-85
2021/06/19 00:40:00;;;;;;;6.35;5.85;;;;;;;25.92;50.44;95464.00;4997677;28;20210;-86
2021/06/19 00:42:27;;;;;;;6.88;6.18;;;;;;;25.97;51.02;95469.25;4997762;28;20204;-86
2021/06/19 00:44:56;;;;;;;7.22;6.53;;;;;;;25.94;51.34;95467.94;4997178;28;20238;-86
2021/06/19 00:47:23;;;;;;;7.50;6.80;;;;;;;25.91;51.29;95465.06;4997325;28;20390;-86
2021/06/19 00:49:50;;;;;;;7.50;6.80;;;;;;;25.94;51.18;95469.78;4996713;28;20204;-85
2021/06/19 00:52:16;;;;;;;7.07;6.53;;;;;;;25.93;52.26;95470.84;4996659;28;20195;-86
2021/06/19 00:54:44;;;;;;;7.00;6.47;;;;;;;25.91;51.74;95475.63;4996811;28;20224;-84
2021/06/19 00:57:11;;;;;;;7.82;7.00;;;;;;;25.85;52.36;95479.34;4986281;28;20226;-85
2021/06/19 00:59:38;;;;;;;7.65;7.00;;;;;;;25.88;51.79;95490.16;4996789;28;20211;-87
2021/06/19 01:02:05;;;;;;;9.10;7.20;;;;;;;25.88;52.62;95490.16;4996448;28;20200;-86
2021/06/19 01:04:32;;;;;;;7.68;6.97;;;;;;;25.88;52.32;95498.06;4996571;28;20220;-86
2021/06/19 01:06:59;;;;;;;7.60;6.90;;;;;;;25.86;52.72;95502.81;4995958;28;20212;-85
2021/06/19 01:09:26;;;;;;;8.00;7.20;;;;;;;25.83;52.72;95506.00;4996321;28;20215;-85
2021/06/19 01:11:54;;;;;;;8.00;7.30;;;;;;;25.83;52.62;95507.84;4995827;28;20226;-87
2021/06/19 01:14:20;;;;;;;7.70;7.00;;;;;;;25.79;53.13;95499.69;4996050;28;20231;-86
2021/06/19 01:16:49;;;;;;;7.97;6.80;;;;;;;25.77;53.06;95499.19;4996255;28;20267;-86
2021/06/19 01:19:16;;;;;;;7.88;7.07;;;;;;;25.76;52.58;95505.53;4995978;28;20208;-86
2021/06/19 01:21:43;;;;;;;8.00;7.28;;;;;;;25.73;52.96;95498.97;4997659;28;20210;-86
2021/06/19 01:24:13;;;;;;;7.53;6.85;;;;;;;25.67;53.68;95491.34;4999833;28;20227;-85
2021/06/19 01:26:43;;;;;;;6.72;6.20;;;;;;;25.68;52.98;95487.63;5000631;28;20203;-86
2021/06/19 01:29:09;;;;;;;7.53;6.82;;;;;;;25.57;54.02;95488.75;5000597;28;20203;-85
2021/06/19 01:31:37;;;;;;;7.22;6.53;;;;;;;25.49;53.84;95484.81;5000034;28;20210;-86
2021/06/19 01:34:04;;;;;;;7.47;6.88;;;;;;;25.50;53.87;95485.63;5000434;28;20262;-83
2021/06/19 01:36:30;;;;;;;8.02;7.22;;;;;;;25.43;54.77;95478.78;5000043;28;20206;-86
2021/06/19 01:38:57;;;;;;;8.30;6.32;;;;;;;25.44;54.71;95485.63;5000300;28;20215;-83
2021/06/19 01:41:25;;;;;;;7.97;7.28;;;;;;;25.51;54.05;95493.25;5000468;28;20538;-85
2021/06/19 01:44:00;;;;;;;7.38;6.68;;;;;;;25.58;54.18;95506.16;4999499;28;20230;-85
2021/06/19 01:46:27;;;;;;;7.90;7.13;;;;;;;25.61;54.12;95503.72;4998773;28;20206;-84
2021/06/19 01:48:53;;;;;;;9.55;6.57;;;;;;;25.65;53.53;95499.53;5000028;28;20287;-86
2021/06/19 01:51:20;;;;;;;7.28;6.50;;;;;;;25.70;53.66;95504.78;4997844;28;20211;-84
2021/06/19 01:53:47;;;;;;;7.05;6.55;;;;;;;25.73;53.85;95506.88;4998885;28;20223;-84
2021/06/19 01:56:14;;;;;;;7.18;6.68;;;;;;;25.71;53.71;95508.19;4988223;28;20215;-85
2021/06/19 01:58:42;;;;;;;7.85;7.15;;;;;;;25.68;54.00;95512.16;4999354;28;20224;-86
2021/06/19 02:01:12;;;;;;;7.45;6.85;;;;;;;25.73;54.00;95506.09;4999275;28;20203;-86
2021/06/19 02:03:39;;;;;;;7.50;6.85;;;;;;;25.75;53.82;95509.22;4999267;28;20315;-86
2021/06/19 02:06:06;;;;;;;8.02;7.32;;;;;;;25.73;53.87;95514.00;4999112;28;20214;-86
2021/06/19 02:08:33;;;;;;;7.10;6.50;;;;;;;25.74;53.80;95518.22;5002699;28;20196;-86
2021/06/19 02:11:00;;;;;;;7.97;7.10;;;;;;;25.75;53.88;95517.16;5004430;28;20200;-84
2021/06/19 02:13:27;;;;;;;7.35;6.75;;;;;;;25.72;54.41;95521.13;5005517;28;20227;-86
2021/06/19 02:15:55;;;;;;;7.57;6.97;;;;;;;25.72;54.11;95523.75;5006327;28;20203;-86
2021/06/19 02:18:22;;;;;;;7.70;7.00;;;;;;;25.75;54.08;95515.31;5005206;28;20216;-86
2021/06/19 02:20:52;;;;;;;8.23;7.40;;;;;;;25.67;54.90;95517.72;5006067;28;20211;-85
2021/06/19 02:23:19;;;;;;;9.45;7.00;;;;;;;25.62;55.08;95509.78;5006050;28;20266;-85
2021/06/19 02:25:48;;;;;;;8.27;7.47;;;;;;;25.56;54.65;95519.59;5003682;28;20209;-87
2021/06/19 02:28:14;;;;;;;7.80;7.10;;;;;;;25.52;55.01;95518.56;5000477;28;20207;-87
2021/06/19 02:30:44;;;;;;;8.35;7.55;;;;;;;25.57;54.71;95521.19;5000586;28;20687;-82
2021/06/19 02:33:12;;;;;;;7.88;7.10;;;;;;;25.61;55.22;95521.41;4998505;28;20231;-85
2021/06/19 02:35:44;;;;;;;7.75;7.15;;;;;;;25.65;55.21;95520.63;5001040;28;20199;-86
2021/06/19 02:38:11;;;;;;;7.65;6.95;;;;;;;25.70;54.80;95525.09;5000434;28;20227;-85
2021/06/19 02:40:38;;;;;;;8.25;7.60;;;;;;;25.71;54.79;95524.81;5000272;28;20199;-86
2021/06/19 02:43:05;;;;;;;8.50;7.65;;;;;;;25.72;55.18;95523.75;4999984;28;20238;-85
2021/06/19 02:45:32;;;;;;;8.20;7.40;;;;;;;25.69;54.88;95519.03;4999777;28;20203;-84
2021/06/19 02:47:59;;;;;;;8.15;7.22;;;;;;;25.68;55.10;95528.00;5000381;28;20213;-84
2021/06/19 02:50:28;;;;;;;12.13;11.20;;;;;;;25.65;55.19;95523.25;5000034;28;20199;-85
2021/06/19 02:52:56;;;;;;;14.55;13.23;;;;;;;25.65;55.26;95523.25;5000562;28;20208;-85
2021/06/19 02:55:24;;;;;;;9.32;8.27;;;;;;;25.68;54.83;95532.47;4994886;28;20220;-86
2021/06/19 02:57:51;;;;;;;7.90;7.30;;;;;;;25.62;55.74;95531.72;4995880;28;20223;-86
2021/06/19 03:00:20;;;;;;;8.23;7.40;;;;;;;25.65;55.75;95538.28;5000519;28;20211;-87
2021/06/19 03:02:46;;;;;;;11.57;7.15;;;;;;;25.63;55.73;95530.66;5000486;28;20214;-85
2021/06/19 03:05:16;;;;;;;8.63;7.47;;;;;;;25.54;56.10;95529.63;4994978;28;20218;-84
2021/06/19 03:07:43;;;;;;;8.10;7.30;;;;;;;25.52;56.28;95531.75;4989335;28;20200;-86
2021/06/19 03:10:13;;;;;;;8.32;7.63;;;;;;;25.48;56.22;95530.72;5000099;28;20208;-86
2021/06/19 03:12:40;;;;;;;7.80;7.10;;;;;;;25.48;56.44;95531.50;4999752;28;20215;-84
2021/06/19 03:15:08;;;;;;;8.20;7.40;;;;;;;25.43;56.81;95531.50;4999545;28;20217;-86
2021/06/19 03:17:35;;;;;;;8.45;7.65;;;;;;;25.42;56.54;95529.94;4999477;28;20227;-86
2021/06/19 03:20:02;;;;;;;8.88;7.90;;;;;;;25.35;57.13;95533.94;4999590;28;20204;-84
2021/06/19 03:22:28;;;;;;;8.68;7.80;;;;;;;25.32;57.06;95537.13;4992737;28;20208;-84
2021/06/19 03:24:54;;;;;;;7.82;7.20;;;;;;;25.24;58.09;95541.09;4991088;28;20231;-83
2021/06/19 03:27:22;;;;;;;8.35;7.55;;;;;;;25.24;57.91;95538.44;4991727;28;20567;-84
2021/06/19 03:29:49;;;;;;;8.98;7.55;;;;;;;25.23;58.08;95534.25;4991379;28;20208;-83
2021/06/19 03:32:15;;;;;;;8.77;7.45;;;;;;;25.29;57.56;95537.66;4990758;28;20203;-83
2021/06/19 03:34:42;;;;;;;8.27;7.45;;;;;;;25.24;57.86;95541.09;4991059;28;20227;-84
2021/06/19 03:37:08;;;;;;;8.43;7.72;;;;;;;25.24;57.77;95553.47;4991220;28;20214;-83
2021/06/19 03:39:35;;;;;;;8.88;8.07;;;;;;;25.26;57.57;95554.00;4990985;28;20199;-83
2021/06/19 03:42:02;;;;;;;8.45;7.60;;;;;;;25.27;58.15;95550.31;4990809;28;20207;-83
2021/06/19 03:44:31;;;;;;;8.95;8.05;;;;;;;25.29;57.71;95548.97;4990699;28;20235;-83
2021/06/19 03:46:57;;;;;;;12.35;7.95;;;;;;;25.29;57.77;95551.63;4990695;28;20203;-84
2021/06/19 03:49:23;;;;;;;8.68;7.78;;;;;;;25.30;58.45;95549.78;4991407;28;20738;-84
2021/06/19 03:51:50;;;;;;;9.18;8.27;;;;;;;25.32;58.08;95551.09;4977080;28;20220;-83
2021/06/19 03:54:17;;;;;;;9.52;7.78;;;;;;;25.33;58.37;95559.78;4970964;28;20235;-84
2021/06/19 03:56:43;;;;;;;8.07;7.38;;;;;;;25.32;58.22;95558.19;4981867;28;20192;-85
2021/06/19 03:59:10;;;;;;;9.48;7.90;;;;;;;25.24;58.72;95556.91;4971278;28;20216;-86
2021/06/19 04:01:38;;;;;;;10.00;7.90;;;;;;;25.15;59.32;95563.81;4971003;28;20207;-85
2021/06/19 04:04:05;;;;;;;8.13;7.43;;;;;;;25.16;59.13;95573.28;4971261;28;20898;-85
2021/06/19 04:06:31;;;;;;;9.05;8.15;;;;;;;25.18;59.39;95580.94;4970988;28;20208;-86
2021/06/19 04:08:58;;;;;;;9.57;8.18;;;;;;;25.21;59.25;95580.41;4971789;28;20200;-85
2021/06/19 04:11:24;;;;;;;7.85;7.22;;;;;;;25.28;59.56;95576.41;4972149;28;20216;-84
2021/06/19 04:13:51;;;;;;;7.65;6.95;;;;;;;25.40;58.65;95586.66;4971963;28;20242;-84
2021/06/19 04:16:17;;;;;;;8.38;7.68;;;;;;;25.50;58.52;95583.97;4971946;28;20211;-83
2021/06/19 04:18:45;;;;;;;8.40;7.60;;;;;;;25.63;57.92;95593.16;4971295;28;20227;-84
2021/06/19 04:21:11;;;;;;;8.40;7.47;;;;;;;25.71;57.87;95593.41;4971098;28;20208;-84
2021/06/19 04:23:38;;;;;;;8.13;7.43;;;;;;;25.76;57.43;95598.66;4971459;28;20227;-84
2021/06/19 04:26:04;;;;;;;7.88;7.18;;;;;;;25.88;57.00;95594.88;4971503;28;20274;-83
2021/06/19 04:28:31;;;;;;;8.60;7.78;;;;;;;25.96;56.85;95599.59;4971362;28;20196;-84
2021/06/19 04:31:00;;;;;;;8.65;7.63;;;;;;;26.01;56.96;95602.97;4989304;28;20204;-83
2021/06/19 04:33:26;;;;;;;7.72;7.13;;;;;;;26.08;56.50;95605.31;4990731;28;20305;-82
2021/06/19 04:35:54;;;;;;;8.68;7.28;;;;;;;26.17;56.32;95615.00;4990569;28;20203;-83
2021/06/19 04:38:21;;;;;;;8.00;7.28;;;;;;;26.29;55.66;95619.19;4990799;28;20223;-83
2021/06/19 04:40:51;;;;;;;8.00;7.20;;;;;;;26.38;55.73;95626.25;4990915;28;20210;-83
2021/06/19 04:43:24;;;;;;;8.35;7.00;;;;;;;26.45;55.74;95620.69;4991168;28;20219;-82
2021/06/19 04:45:50;;;;;;;7.75;7.10;;;;;;;26.56;55.42;95631.94;4991119;28;20301;-83
2021/06/19 04:48:17;;;;;;;7.90;7.20;;;;;;;26.62;55.47;95631.63;4988601;28;20210;-84
2021/06/19 04:50:43;;;;;;;7.63;6.85;;;;;;;26.66;55.01;95634.50;4990869;28;20703;-83
2021/06/19 04:53:12;;;;;;;8.75;7.88;;;;;;;26.68;54.99;95637.66;4989674;28;20227;-83
2021/06/19 04:55:39;;;;;;;8.02;7.25;;;;;;;26.65;55.36;95632.94;4990656;28;20206;-84
2021/06/19 04:58:05;;;;;;;8.02;7.05;;;;;;;26.67;55.15;95638.72;4973655;28;20455;-84
2021/06/19 05:00:33;;;;;;;7.75;7.05;;;;;;;26.69;55.00;95634.75;4970985;28;20253;-84
2021/06/19 05:03:00;;;;;;;7.15;6.45;;;;;;;26.73;55.13;95642.91;4970399;28;20224;-84
2021/06/19 05:05:28;;;;;;;7.82;7.13;;;;;;;26.77;55.17;95644.72;4977563;28;20215;-84
2021/06/19 05:07:55;;;;;;;7.15;6.60;;;;;;;26.83;54.94;95648.09;4989664;28;20634;-83
2021/06/19 05:10:23;;;;;;;7.82;7.03;;;;;;;26.92;54.33;95643.81;4990161;28;20473;-84
2021/06/19 05:12:50;;;;;;;7.40;6.70;;;;;;;26.94;54.76;95644.31;4990094;28;20218;-83
2021/06/19 05:15:21;;;;;;;8.07;6.70;;;;;;;26.88;54.59;95642.00;4990026;28;20206;-83
2021/06/19 05:17:47;;;;;;;8.10;7.15;;;;;;;26.86;54.43;95644.13;4989957;28;20616;-85
2021/06/19 05:20:14;;;;;;;7.75;6.95;;;;;;;26.72;54.88;95652.69;4990084;28;20203;-85
2021/06/19 05:22:40;;;;;;;9.00;6.80;;;;;;;26.60;55.27;95646.97;4990615;28;20586;-85
2021/06/19 05:25:08;;;;;;;8.55;6.90;;;;;;;26.57;55.03;95646.72;4989179;28;20723;-85
2021/06/19 05:27:36;;;;;;;7.10;6.40;;;;;;;26.53;55.48;95645.72;4982070;28;20191;-85
2021/06/19 05:30:02;;;;;;;7.25;6.55;;;;;;;26.49;55.51;95650.75;4988763;28;20200;-85
2021/06/19 05:32:29;;;;;;;7.65;6.90;;;;;;;26.50;55.68;95654.97;4990509;28;20215;-85
2021/06/19 05:34:55;;;;;;;8.23;6.60;;;;;;;26.48;55.69;95652.59;4990969;28;20227;-85
2021/06/19 05:37:22;;;;;;;7.95;7.03;;;;;;;26.46;55.61;95659.22;4990967;28;20203;-84
2021/06/19 05:39:49;;;;;;;7.20;6.50;;;;;;;26.44;55.72;95656.06;4991204;28;20223;-85
2021/06/19 05:42:16;;;;;;;7.43;6.47;;;;;;;26.35;55.86;95663.78;4990282;28;20211;-83
2021/06/19 05:44:44;;;;;;;7.18;6.47;;;;;;;26.34;56.29;95672.00;4989865;28;20232;-85
2021/06/19 05:47:10;;;;;;;9.77;7.20;;;;;;;26.22;56.17;95674.91;4989975;28;20214;-83
2021/06/19 05:49:37;;;;;;;7.35;6.65;;;;;;;26.16;56.97;95683.94;4990105;28;20204;-83
2021/06/19 05:52:04;;;;;;;7.35;6.70;;;;;;;26.19;56.75;95679.94;4990076;28;20207;-85
2021/06/19 05:54:35;;;;;;;7.30;6.57;;;;;;;26.20;56.63;95682.31;4990000;28;20215;-85
2021/06/19 05:57:02;;;;;;;10.35;7.18;;;;;;;26.18;57.26;95684.44;4984000;28;20295;-85
2021/06/19 05:59:28;;;;;;;10.20;6.90;;;;;;;26.18;57.58;95684.44;4971047;28;20224;-84
2021/06/19 06:01:56;;;;;;;8.60;7.18;;;;;;;26.18;57.52;95684.44;4970820;28;20208;-86
2021/06/19 06:04:23;;;;;;;11.85;6.90;;;;;;;26.20;57.50;95692.09;4971661;28;20235;-87
2021/06/19 06:06:49;;;;;;;10.18;7.50;;;;;;;26.24;57.76;95690.47;4974449;28;20735;-86
2021/06/19 06:09:16;;;;;;;7.78;7.00;;;;;;;26.38;57.07;95697.56;4976456;28;20200;-86
2021/06/19 06:11:43;;;;;;;8.20;6.75;;;;;;;26.41;57.35;95699.66;4977706;28;20698;-85
2021/06/19 06:14:10;;;;;;;8.95;6.97;;;;;;;26.41;56.74;95690.94;4977404;28;20754;-86
2021/06/19 06:16:37;;;;;;;8.32;7.07;;;;;;;26.48;56.68;95692.22;4978352;28;20231;-86
2021/06/19 06:19:05;;;;;;;7.45;6.45;;;;;;;26.54;56.26;95694.84;4978243;28;20228;-86
2021/06/19 06:21:31;;;;;;;8.55;7.72;;;;;;;26.51;56.68;95676.91;4978291;28;20215;-86
2021/06/19 06:23:58;;;;;;;7.68;6.82;;;;;;;26.58;56.21;95687.91;4978209;28;20248;-86
2021/06/19 06:26:24;;;;;;;8.57;6.72;;;;;;;26.59;56.02;95695.56;4977977;28;21008;-86
2021/06/19 06:28:51;;;;;;;8.30;6.72;;;;;;;26.68;55.86;95693.16;4978030;28;20196;-86
2021/06/19 06:31:17;;;;;;;7.32;6.25;;;;;;;26.72;54.47;95699.47;4977200;28;20204;-85
2021/06/19 06:33:44;;;;;;;6.97;6.28;;;;;;;26.77;54.48;95696.75;4976859;28;20234;-86
2021/06/19 06:36:12;;;;;;;7.82;6.40;;;;;;;26.74;54.73;95700.78;4977019;28;20211;-87
2021/06/19 06:38:38;;;;;;;8.10;5.80;;;;;;;26.67;54.75;95699.50;4976878;28;20311;-85
2021/06/19 06:41:05;;;;;;;8.00;6.75;;;;;;;26.63;54.71;95706.38;4977033;28;20219;-86
2021/06/19 06:43:31;;;;;;;9.60;8.32;;;;;;;26.71;54.57;95693.41;4976685;28;20220;-86
2021/06/19 06:45:58;;;;;;;7.80;6.53;;;;;;;26.70;53.79;95704.22;4995975;28;20211;-85
2021/06/19 06:48:24;;;;;;;8.48;6.70;;;;;;;26.81;54.04;95703.88;4997089;28;20207;-86
2021/06/19 06:50:51;;;;;;;7.57;6.32;;;;;;;26.95;53.93;95700.63;4996092;28;20254;-86
2021/06/19 06:53:19;;;;;;;8.25;6.25;;;;;;;27.00;53.91;95704.00;4995770;28;20223;-85
2021/06/19 06:55:46;;;;;;;9.88;6.40;;;;;;;26.99;54.01;95705.09;4996010;28;20231;-85
2021/06/19 06:58:12;;;;;;;11.82;7.22;;;;;;;27.00;53.83;95695.28;4978558;28;20504;-86
2021/06/19 07:00:39;;;;;;;8.10;7.30;;;;;;;27.15;53.08;95698.59;4976969;28;20691;-86
2021/06/19 07:03:06;;;;;;;8.63;6.70;;;;;;;27.36;52.80;95699.19;4976811;28;20311;-87
2021/06/19 07:05:32;;;;;;;7.30;6.60;;;;;;;27.49;52.79;95701.19;4976657;28;20210;-87
2021/06/19 07:07:59;;;;;;;7.65;6.68;;;;;;;27.58;52.46;95700.59;4976098;28;20216;-86
2021/06/19 07:10:27;;;;;;;8.82;6.03;;;;;;;27.59;52.28;95704.81;4976136;28;20212;-86
2021/06/19 07:12:53;;;;;;;8.60;6.35;;;;;;;27.68;52.27;95703.94;4974858;28;20204;-86
2021/06/19 07:15:20;;;;;;;8.18;6.20;;;;;;;27.65;52.57;95695.78;4975409;28;20215;-85
2021/06/19 07:17:48;;;;;;;8.27;6.22;;;;;;;27.61;52.30;95705.34;4976080;28;20204;-84
2021/06/19 07:20:16;;;;;;;13.75;6.07;;;;;;;27.64;52.18;95707.41;4975360;28;20228;-86
2021/06/19 07:22:42;;;;;;;10.63;6.05;;;;;;;27.70;51.20;95703.66;4975701;28;20212;-83
2021/06/19 07:25:11;;;;;;;7.85;6.40;;;;;;;27.76;51.57;95703.31;4976773;28;20742;-85
2021/06/19 07:27:39;;;;;;;9.27;5.97;;;;;;;27.87;51.68;95706.63;4977066;28;20208;-84
2021/06/19 07:30:08;;;;;;;7.32;5.57;;;;;;;27.96;51.23;95712.06;4975427;28;20201;-84
2021/06/19 07:32:35;;;;;;;8.45;6.15;;;;;;;27.99;51.26;95707.00;4976138;28;20212;-87
2021/06/19 07:35:01;;;;;;;8.82;6.18;;;;;;;28.02;50.80;95708.31;4976600;28;20750;-83
2021/06/19 07:37:28;;;;;;;10.38;7.10;;;;;;;28.06;50.31;95706.66;4976360;28;20208;-83
2021/06/19 07:39:54;;;;;;;10.93;7.55;;;;;;;28.18;50.83;95707.03;4976281;28;20251;-85
2021/06/19 07:42:21;;;;;;;9.07;5.88;;;;;;;28.08;50.15;95700.03;4975782;28;20598;-84
2021/06/19 07:44:50;;;;;;;8.27;6.13;;;;;;;28.12;50.26;95700.22;4984273;28;20236;-84
2021/06/19 07:47:17;;;;;;;9.65;6.00;;;;;;;28.21;50.48;95709.16;4994995;28;20211;-85
2021/06/19 07:49:44;;;;;;;9.02;6.28;;;;;;;28.33;49.91;95703.41;4995013;28;20204;-85
2021/06/19 07:52:10;;;;;;;11.57;5.90;;;;;;;28.37;50.41;95707.06;4993909;28;20207;-84
2021/06/19 07:54:37;;;;;;;9.35;5.68;;;;;;;28.45;50.03;95704.59;4994255;28;20795;-85
2021/06/19 07:57:06;;;;;;;6.82;5.70;;;;;;;28.60;48.27;95705.44;4985876;28;20230;-85
2021/06/19 07:59:32;;;;;;;8.82;5.75;;;;;;;28.74;49.35;95693.03;4974559;28;20638;-85
2021/06/19 08:02:00;;;;;;;5.68;4.97;;;;;;;28.84;47.69;95706.97;4974630;28;20200;-85
2021/06/19 08:04:27;;;;;;;8.93;5.40;;;;;;;28.86;47.67;95704.00;4974715;28;20230;-86
2021/06/19 08:06:53;;;;;;;11.15;5.28;;;;;;;29.05;47.83;95696.03;4975607;28;20200;-84
2021/06/19 08:09:20;;;;;;;10.32;5.75;;;;;;;29.23;47.49;95686.44;4975072;28;20200;-83
2021/06/19 08:11:46;;;;;;;7.20;5.57;;;;;;;29.34;47.24;95690.47;4975115;28;20208;-84
2021/06/19 08:14:14;;;;;;;7.38;5.40;;;;;;;29.41;46.04;95690.91;4974456;28;20723;-85
2021/06/19 08:16:41;;;;;;;7.75;5.43;;;;;;;29.50;46.39;95681.19;4974553;28;20208;-85
2021/06/19 08:19:10;;;;;;;10.68;9.30;;;;;;;29.49;46.15;95679.59;4974556;28;20232;-85
2021/06/19 08:21:37;;;;;;;10.95;7.68;;;;;;;29.54;46.47;95669.69;4973736;28;20299;-84
2021/06/19 08:24:04;;;;;;;12.07;6.18;;;;;;;29.65;45.74;95670.28;4973106;28;20219;-85
2021/06/19 08:26:30;;;;;;;8.88;5.95;;;;;;;29.55;45.16;95662.53;4973683;28;20204;-86
2021/06/19 08:28:57;;;;;;;6.68;5.40;;;;;;;29.48;44.89;95664.75;4974116;28;20242;-85
2021/06/19 08:31:23;;;;;;;11.85;5.90;;;;;;;29.54;45.37;95666.25;4973449;28;20552;-86
2021/06/19 08:33:52;;;;;;;9.32;5.40;;;;;;;29.58;45.47;95667.25;4974534;28;20231;-87
2021/06/19 08:36:20;;;;;;;8.73;5.57;;;;;;;29.56;44.74;95658.78;4974423;28;20208;-85
2021/06/19 08:38:47;;;;;;;9.05;5.18;;;;;;;29.65;44.96;95654.34;4974221;28;20306;-85
2021/06/19 08:41:13;;;;;;;8.32;5.35;;;;;;;29.69;44.15;95654.53;4973839;28;20204;-87
2021/06/19 08:43:42;;;;;;;10.15;5.43;;;;;;;29.60;44.39;95651.81;4973209;28;20220;-87
2021/06/19 08:46:10;;;;;;;11.52;5.68;;;;;;;29.67;44.48;95657.50;4992425;28;20883;-86
2021/06/19 08:48:38;;;;;;;11.98;5.70;;;;;;;29.57;44.25;95654.25;4993649;28;20207;-86
2021/06/19 08:51:05;;;;;;;9.23;5.80;;;;;;;29.67;43.82;95646.09;4993424;28;20199;-86
2021/06/19 08:53:34;;;;;;;8.05;5.38;;;;;;;29.65;43.86;95648.25;4993700;28;20234;-86
2021/06/19 08:56:00;;;;;;;7.53;5.50;;;;;;;29.76;44.17;95646.97;4992733;28;20319;-85
2021/06/19 08:58:27;;;;;;;8.98;5.18;;;;;;;29.94;43.76;95647.94;4973983;28;20503;-85
2021/06/19 09:00:53;;;;;;;10.93;5.35;;;;;;;30.07;44.01;95649.81;4973836;28;20227;-87
2021/06/19 09:03:21;;;;;;;9.27;5.60;;;;;;;30.13;43.04;95641.44;4976117;28;20690;-85
2021/06/19 09:05:48;;;;;;;8.93;6.00;;;;;;;30.25;43.24;95656.84;4987833;28;20200;-86
2021/06/19 09:08:16;;;;;;;12.65;5.65;;;;;;;30.26;42.93;95655.75;4991504;28;20847;-86
2021/06/19 09:10:44;;;;;;;9.85;5.05;;;;;;;30.34;43.29;95649.75;4991927;28;20211;-85
2021/06/19 09:13:11;;;;;;;7.47;5.03;;;;;;;30.36;43.44;95647.59;4990530;28;20326;-85
2021/06/19 09:15:42;;;;;;;10.73;5.85;;;;;;;30.34;43.89;95648.97;4991438;28;20229;-86
2021/06/19 09:18:22;;;;;;;11.07;5.53;;;;;;;30.37;43.09;95651.81;4990116;28;20203;-87
2021/06/19 09:20:52;;;;;;;10.85;9.75;;;;;;;30.48;43.04;95655.81;4986252;28;20218;-85
2021/06/19 09:23:27;;;;;;;12.20;9.70;;;;;;;30.64;42.64;95645.63;4971870;28;20786;-86
2021/06/19 09:26:07;;;;;;;9.95;6.30;;;;;;;30.68;41.63;95645.81;4971931;28;20195;-86
2021/06/19 09:28:55;;;;;;;12.40;5.35;;;;;;;30.76;42.78;95632.59;4972000;28;20207;-86
2021/06/19 09:31:31;;;;;;;6.05;4.90;;;;;;;30.87;42.24;95635.75;4971516;28;20674;-85
2021/06/19 09:34:06;;;;;;;9.85;5.65;;;;;;;30.91;42.22;95629.53;4972358;28;20719;-86
2021/06/19 09:36:37;;;;;;;11.35;5.45;;;;;;;31.09;42.11;95632.28;4973206;28;20234;-86
2021/06/19 09:39:05;;;;;;;7.55;5.55;;;;;;;31.27;42.24;95633.19;4972280;28;20227;-85
2021/06/19 09:41:40;;;;;;;8.90;5.38;;;;;;;31.33;41.09;95623.97;4972479;28;20208;-87
2021/06/19 09:44:06;;;;;;;12.60;5.38;;;;;;;31.48;39.85;95628.88;4979938;28;20717;-86
2021/06/19 09:46:33;;;;;;;8.25;5.88;;;;;;;31.17;40.54;95626.28;4995781;28;20902;-86
2021/06/19 09:49:11;;;;;;;11.07;5.82;;;;;;;31.23;41.25;95619.69;4995451;28;20214;-87
2021/06/19 09:51:44;;;;;;;10.15;7.60;;;;;;;31.42;40.67;95622.91;4995451;28;20647;-87
2021/06/19 09:54:11;;;;;;;12.45;10.20;;;;;;;31.48;40.68;95613.69;4990886;28;20216;-86
2021/06/19 09:56:47;;;;;;;7.05;6.20;;;;;;;31.32;39.64;95611.78;4987683;28;20315;-86
2021/06/19 09:59:29;;;;;;;10.07;6.07;;;;;;;31.22;39.88;95608.28;4985681;28;20223;-86
2021/06/19 10:01:56;;;;;;;8.70;5.95;;;;;;;31.43;40.02;95608.50;4975344;28;20287;-86
2021/06/19 10:04:24;;;;;;;9.00;5.50;;;;;;;31.66;39.54;95613.78;4975102;28;20243;-86
2021/06/19 10:06:52;;;;;;;7.32;5.68;;;;;;;31.76;39.56;95614.25;4975530;28;20585;-86
2021/06/19 10:09:18;;;;;;;10.95;5.82;;;;;;;31.89;39.45;95605.38;4976870;28;20212;-85
2021/06/19 10:11:51;;;;;;;6.78;5.75;;;;;;;32.07;39.59;95602.72;4974775;28;20214;-86
2021/06/19 10:14:19;;;;;;;9.13;5.97;;;;;;;32.21;39.76;95590.84;4974322;28;20246;-86
2021/06/19 10:16:50;;;;;;;11.05;5.88;;;;;;;32.33;38.84;95594.78;4975789;28;20266;-86
2021/06/19 10:19:21;;;;;;;7.97;6.57;;;;;;;32.47;38.43;95606.06;4976567;28;20228;-85
2021/06/19 10:21:51;;;;;;;8.55;7.78;;;;;;;32.49;37.67;95604.63;4994316;28;20207;-86
2021/06/19 10:24:18;;;;;;;8.43;6.55;;;;;;;32.57;36.49;95597.72;4994806;28;20314;-86
2021/06/19 10:26:47;;;;;;;14.43;6.55;;;;;;;32.44;36.55;95596.78;4995515;28;20206;-85
2021/06/19 10:29:15;;;;;;;7.05;6.18;;;;;;;32.59;37.08;95595.50;4997276;28;20200;-85
2021/06/19 10:31:44;;;;;;;5.90;5.35;;;;;;;32.76;37.55;95598.19;4997427;28;20242;-85
2021/06/19 10:34:22;;;;;;;8.38;6.75;;;;;;;32.83;37.01;95601.16;4996832;28;20307;-86
2021/06/19 10:36:49;;;;;;;8.25;6.50;;;;;;;33.00;37.01;95596.88;4999596;28;20262;-86
2021/06/19 10:39:32;;;;;;;6.97;5.85;;;;;;;33.01;36.45;95585.88;5000200;28;20222;-86
2021/06/19 10:42:00;;;;;;;6.93;5.90;;;;;;;32.88;36.94;95587.66;4998546;28;20208;-87
2021/06/19 10:44:53;;;;;;;7.25;6.47;;;;;;;32.75;36.83;95582.50;4998652;28;20229;-86
2021/06/19 10:47:21;;;;;;;9.57;6.70;;;;;;;32.72;37.92;95578.53;5000365;28;20199;-89
2021/06/19 10:49:48;;;;;;;11.38;6.22;;;;;;;32.73;37.56;95569.47;4999047;28;20214;-85
2021/06/19 10:52:26;;;;;;;7.82;5.93;;;;;;;32.66;37.65;95566.50;4992962;28;20199;-85
2021/06/19 10:55:22;;;;;;;7.85;6.60;;;;;;;32.54;36.74;95571.69;4991136;28;20228;-86
2021/06/19 10:57:53;;;;;;;11.07;6.15;;;;;;;32.42;36.30;95563.56;4989322;28;20655;-86
2021/06/19 11:00:32;;;;;;;8.75;6.28;;;;;;;32.34;37.57;95559.00;4990912;28;20251;-87
2021/06/19 11:03:00;;;;;;;13.98;11.80;;;;;;;32.24;38.34;95560.13;4995936;28;20286;-87
2021/06/19 11:05:52;;;;;;;11.98;10.50;;;;;;;32.29;38.46;95549.31;4996078;28;20214;-87
2021/06/19 11:08:20;;;;;;;10.63;7.30;;;;;;;32.35;38.30;95542.69;4995432;28;20210;-88
2021/06/19 11:11:00;;;;;;;7.50;6.35;;;;;;;32.46;38.97;95546.63;4995264;28;20203;-87
2021/06/19 11:13:45;;;;;;;7.95;7.13;;;;;;;32.54;38.79;95548.47;4995320;28;20238;-88
2021/06/19 11:16:46;;;;;;;9.38;6.45;;;;;;;32.64;38.19;95538.56;4995623;28;20211;-88
2021/06/19 11:19:39;;;;;;;10.50;5.95;;;;;;;32.65;38.02;95530.25;4995683;28;20247;-86
2021/06/19 11:22:31;;;;;;;9.10;7.95;;;;;;;32.73;38.07;95533.97;4991669;28;20214;-87
2021/06/19 11:25:52;;;;;;;8.88;8.00;;;;;;;32.59;37.94;95526.97;4992867;28;20277;-87
2021/06/19 11:28:34;;;;;;;8.35;7.35;;;;;;;32.61;38.71;95522.09;4993563;28;20207;-88
2021/06/19 11:34:33;;;;;;;;;;;;;;;;;;;;;
2021/06/19 11:54:07;;;;;;;7.57;6.80;;;;;;;33.09;38.31;95475.66;4886547;29;20245;-88
2021/06/19 11:56:34;;;;;;;7.57;6.88;;;;;;;33.26;38.08;95478.25;4975203;28;20760;-88
2021/06/19 11:59:03;;;;;;;9.35;6.32;;;;;;;33.21;37.10;95475.75;4989192;28;20290;-88
2021/06/19 12:01:36;;;;;;;7.35;6.60;;;;;;;33.21;36.69;95466.94;4991241;28;20278;-88